RYR2DH EPMO-LHBP
Flight info
| Callsign | RYR2DH |
|---|---|
| Flight time | 1h 2m |
| Altitude | 40000 |
| Route | EVINA M66 BABKO DCT EDEMU |
| Aircraft | B738/M-SDE3FGILRWY/SB1 |
Departure
| Time | 2026-05-06 20:57 |
|---|---|
| Airport | Warsaw Modlin Airport (EPMO) |
Arrival
| Time | 2026-05-06 21:59 |
|---|---|
| Airport | Budapest Liszt Ferenc International Airport (LHBP) |
| Time | Latitude | Longitude | Altitude | Speed | Heading |
|---|---|---|---|---|---|
| 2026-05-06 20:23 | 52.44736 | 20.65178 | 337 ft | 0 kts | 206° |
| 2026-05-06 20:45 | 52.44753 | 20.65191 | 332 ft | 3 kts | 206° |
| 2026-05-06 20:45 | 52.44774 | 20.65199 | 335 ft | 4 kts | 146° |
| 2026-05-06 20:45 | 52.44783 | 20.65171 | 335 ft | 4 kts | 81° |
| 2026-05-06 20:46 | 52.44780 | 20.65136 | 336 ft | 0 kts | 81° |
| 2026-05-06 20:49 | 52.44780 | 20.65137 | 336 ft | 0 kts | 81° |
| 2026-05-06 20:50 | 52.44782 | 20.65160 | 334 ft | 4 kts | 81° |
| 2026-05-06 20:50 | 52.44789 | 20.65233 | 334 ft | 8 kts | 81° |
| 2026-05-06 20:50 | 52.44797 | 20.65323 | 335 ft | 8 kts | 81° |
| 2026-05-06 20:50 | 52.44805 | 20.65410 | 337 ft | 8 kts | 81° |
| 2026-05-06 20:51 | 52.44813 | 20.65495 | 335 ft | 7 kts | 81° |
| 2026-05-06 20:51 | 52.44821 | 20.65582 | 334 ft | 9 kts | 81° |
| 2026-05-06 20:51 | 52.44831 | 20.65701 | 337 ft | 11 kts | 81° |
| 2026-05-06 20:51 | 52.44843 | 20.65825 | 335 ft | 11 kts | 81° |
| 2026-05-06 20:52 | 52.44854 | 20.65946 | 336 ft | 11 kts | 81° |
| 2026-05-06 20:52 | 52.44865 | 20.66064 | 337 ft | 10 kts | 81° |
| 2026-05-06 20:52 | 52.44875 | 20.66178 | 336 ft | 10 kts | 81° |
| 2026-05-06 20:52 | 52.44886 | 20.66302 | 337 ft | 12 kts | 81° |
| 2026-05-06 20:53 | 52.44900 | 20.66446 | 336 ft | 14 kts | 81° |
| 2026-05-06 20:53 | 52.44916 | 20.66614 | 337 ft | 16 kts | 81° |
| 2026-05-06 20:53 | 52.44934 | 20.66799 | 334 ft | 16 kts | 81° |
| 2026-05-06 20:53 | 52.44952 | 20.66981 | 333 ft | 16 kts | 81° |
| 2026-05-06 20:54 | 52.44998 | 20.67080 | 336 ft | 11 kts | 6° |
| 2026-05-06 20:54 | 52.45072 | 20.67064 | 334 ft | 10 kts | 353° |
| 2026-05-06 20:54 | 52.45142 | 20.67046 | 334 ft | 10 kts | 349° |
| 2026-05-06 20:54 | 52.45209 | 20.67020 | 337 ft | 10 kts | 341° |
| 2026-05-06 20:55 | 52.45271 | 20.66976 | 334 ft | 10 kts | 315° |
| 2026-05-06 20:55 | 52.45281 | 20.66883 | 335 ft | 6 kts | 263° |
| 2026-05-06 20:55 | 52.45281 | 20.66882 | 335 ft | 0 kts | 263° |
| 2026-05-06 20:56 | 52.45280 | 20.66862 | 336 ft | 6 kts | 263° |
| 2026-05-06 20:56 | 52.45258 | 20.66633 | 333 ft | 48 kts | 259° |
| 2026-05-06 20:56 | 52.45170 | 20.65702 | 337 ft | 115 kts | 261° |
| 2026-05-06 20:57 | 52.45019 | 20.64096 | 358 ft | 167 kts | 260° |
| 2026-05-06 20:57 | 52.44876 | 20.62213 | 1052 ft | 161 kts | 263° |
| 2026-05-06 20:57 | 52.44699 | 20.60398 | 1783 ft | 163 kts | 260° |
| 2026-05-06 20:57 | 52.44501 | 20.58517 | 2430 ft | 172 kts | 259° |
| 2026-05-06 20:58 | 52.44332 | 20.56637 | 3274 ft | 166 kts | 259° |
| 2026-05-06 20:58 | 52.44162 | 20.54736 | 3913 ft | 177 kts | 253° |
| 2026-05-06 20:58 | 52.43390 | 20.53063 | 4155 ft | 202 kts | 209° |
| 2026-05-06 20:58 | 52.41939 | 20.52705 | 4361 ft | 227 kts | 178° |
| 2026-05-06 20:59 | 52.40320 | 20.52980 | 4746 ft | 241 kts | 176° |
| 2026-05-06 20:59 | 52.38579 | 20.53264 | 5050 ft | 258 kts | 178° |
| 2026-05-06 20:59 | 52.36782 | 20.53229 | 5846 ft | 258 kts | 187° |
| 2026-05-06 20:59 | 52.35013 | 20.52900 | 6779 ft | 256 kts | 189° |
| 2026-05-06 21:00 | 52.33244 | 20.52522 | 7617 ft | 257 kts | 189° |
| 2026-05-06 21:00 | 52.31472 | 20.52142 | 8472 ft | 258 kts | 190° |
| 2026-05-06 21:00 | 52.29685 | 20.51767 | 9276 ft | 261 kts | 190° |
| 2026-05-06 21:00 | 52.27876 | 20.51397 | 10058 ft | 264 kts | 190° |
| 2026-05-06 21:01 | 52.25985 | 20.51013 | 10312 ft | 286 kts | 189° |
| 2026-05-06 21:01 | 52.23927 | 20.50603 | 10528 ft | 308 kts | 189° |
| 2026-05-06 21:01 | 52.21813 | 20.50194 | 11471 ft | 301 kts | 189° |
| 2026-05-06 21:01 | 52.19767 | 20.49807 | 12618 ft | 292 kts | 189° |
| 2026-05-06 21:02 | 52.17753 | 20.49428 | 13549 ft | 292 kts | 189° |
| 2026-05-06 21:02 | 52.15719 | 20.49044 | 14256 ft | 296 kts | 189° |
| 2026-05-06 21:02 | 52.13660 | 20.48657 | 15013 ft | 299 kts | 189° |
| 2026-05-06 21:02 | 52.11585 | 20.48269 | 15788 ft | 301 kts | 189° |
| 2026-05-06 21:03 | 52.09517 | 20.47882 | 16534 ft | 305 kts | 190° |
| 2026-05-06 21:03 | 52.07374 | 20.47482 | 17298 ft | 308 kts | 190° |
| 2026-05-06 21:03 | 52.05263 | 20.47089 | 18045 ft | 311 kts | 190° |
| 2026-05-06 21:03 | 52.03108 | 20.46689 | 18719 ft | 313 kts | 190° |
| 2026-05-06 21:04 | 52.00937 | 20.46286 | 19386 ft | 315 kts | 190° |
| 2026-05-06 21:04 | 51.98748 | 20.45881 | 20040 ft | 318 kts | 190° |
| 2026-05-06 21:04 | 51.96540 | 20.45472 | 20649 ft | 321 kts | 190° |
| 2026-05-06 21:04 | 51.94297 | 20.45057 | 21216 ft | 327 kts | 190° |
| 2026-05-06 21:05 | 51.92029 | 20.44638 | 21847 ft | 329 kts | 190° |
| 2026-05-06 21:05 | 51.89745 | 20.44217 | 22512 ft | 331 kts | 190° |
| 2026-05-06 21:05 | 51.87446 | 20.43793 | 23143 ft | 334 kts | 190° |
| 2026-05-06 21:05 | 51.85122 | 20.43365 | 23684 ft | 337 kts | 190° |
| 2026-05-06 21:06 | 51.82783 | 20.42935 | 24209 ft | 339 kts | 190° |
| 2026-05-06 21:06 | 51.80431 | 20.42503 | 24731 ft | 341 kts | 190° |
| 2026-05-06 21:06 | 51.78062 | 20.42068 | 25246 ft | 344 kts | 190° |
| 2026-05-06 21:06 | 51.75674 | 20.41631 | 25743 ft | 346 kts | 190° |
| 2026-05-06 21:07 | 51.73273 | 20.41191 | 26245 ft | 349 kts | 190° |
| 2026-05-06 21:07 | 51.70856 | 20.40749 | 26734 ft | 351 kts | 190° |
| 2026-05-06 21:07 | 51.68421 | 20.40304 | 27209 ft | 353 kts | 190° |
| 2026-05-06 21:07 | 51.65968 | 20.39857 | 27677 ft | 356 kts | 190° |
| 2026-05-06 21:08 | 51.63498 | 20.39407 | 28140 ft | 358 kts | 190° |
| 2026-05-06 21:08 | 51.61012 | 20.38954 | 28582 ft | 361 kts | 190° |
| 2026-05-06 21:08 | 51.58467 | 20.38488 | 28631 ft | 374 kts | 190° |
| 2026-05-06 21:08 | 51.55845 | 20.38008 | 28723 ft | 385 kts | 190° |
| 2026-05-06 21:09 | 51.53147 | 20.37515 | 28802 ft | 395 kts | 190° |
| 2026-05-06 21:09 | 51.47554 | 20.36501 | 29006 ft | 412 kts | 190° |
| 2026-05-06 21:09 | 51.44693 | 20.35986 | 29337 ft | 415 kts | 190° |
| 2026-05-06 21:10 | 51.41822 | 20.35471 | 29726 ft | 416 kts | 190° |
| 2026-05-06 21:10 | 51.38943 | 20.34956 | 30077 ft | 417 kts | 190° |
| 2026-05-06 21:10 | 51.36053 | 20.34437 | 30361 ft | 419 kts | 190° |
| 2026-05-06 21:10 | 51.33151 | 20.33916 | 30632 ft | 421 kts | 190° |
| 2026-05-06 21:11 | 51.30238 | 20.33394 | 30980 ft | 421 kts | 191° |
| 2026-05-06 21:11 | 51.27338 | 20.32875 | 31401 ft | 419 kts | 191° |
| 2026-05-06 21:11 | 51.24448 | 20.32360 | 31828 ft | 417 kts | 191° |
| 2026-05-06 21:11 | 51.21572 | 20.31847 | 32173 ft | 416 kts | 191° |
| 2026-05-06 21:12 | 51.18691 | 20.31331 | 32467 ft | 417 kts | 192° |
| 2026-05-06 21:12 | 51.15805 | 20.30815 | 32812 ft | 417 kts | 192° |
| 2026-05-06 21:12 | 51.12929 | 20.30303 | 33198 ft | 415 kts | 192° |
| 2026-05-06 21:12 | 51.10060 | 20.29793 | 33589 ft | 414 kts | 192° |
| 2026-05-06 21:13 | 51.07236 | 20.29291 | 33826 ft | 415 kts | 192° |
| 2026-05-06 21:13 | 51.01427 | 20.28254 | 34111 ft | 422 kts | 192° |
| 2026-05-06 21:13 | 50.98522 | 20.27741 | 34481 ft | 419 kts | 192° |
| 2026-05-06 21:14 | 50.95629 | 20.27232 | 34789 ft | 418 kts | 192° |
| 2026-05-06 21:14 | 50.92739 | 20.26723 | 35010 ft | 419 kts | 192° |
| 2026-05-06 21:14 | 50.89840 | 20.26211 | 35261 ft | 419 kts | 192° |
| 2026-05-06 21:14 | 50.86951 | 20.25702 | 35566 ft | 417 kts | 192° |
| 2026-05-06 21:15 | 50.84067 | 20.25195 | 35855 ft | 416 kts | 192° |
| 2026-05-06 21:15 | 50.81187 | 20.24689 | 36114 ft | 416 kts | 192° |
| 2026-05-06 21:15 | 50.78305 | 20.24183 | 36347 ft | 417 kts | 192° |
| 2026-05-06 21:15 | 50.75428 | 20.23678 | 36619 ft | 416 kts | 191° |
| 2026-05-06 21:16 | 50.72555 | 20.23175 | 36861 ft | 415 kts | 191° |
| 2026-05-06 21:16 | 50.69683 | 20.22672 | 37091 ft | 415 kts | 191° |
| 2026-05-06 21:16 | 50.66808 | 20.22170 | 37327 ft | 415 kts | 191° |
| 2026-05-06 21:16 | 50.63944 | 20.21670 | 37592 ft | 414 kts | 191° |
| 2026-05-06 21:17 | 50.61079 | 20.21171 | 37847 ft | 414 kts | 191° |
| 2026-05-06 21:17 | 50.58220 | 20.20673 | 38075 ft | 413 kts | 191° |
| 2026-05-06 21:17 | 50.55364 | 20.20177 | 38298 ft | 413 kts | 191° |
| 2026-05-06 21:17 | 50.52512 | 20.19681 | 38495 ft | 413 kts | 191° |
| 2026-05-06 21:18 | 50.49659 | 20.19186 | 38641 ft | 413 kts | 191° |
| 2026-05-06 21:18 | 50.46797 | 20.18689 | 38744 ft | 414 kts | 191° |
| 2026-05-06 21:18 | 50.43932 | 20.18193 | 38878 ft | 415 kts | 191° |
| 2026-05-06 21:18 | 50.41064 | 20.17697 | 39021 ft | 415 kts | 191° |
| 2026-05-06 21:19 | 50.38190 | 20.17201 | 39147 ft | 415 kts | 191° |
| 2026-05-06 21:19 | 50.35356 | 20.16712 | 39265 ft | 416 kts | 190° |
| 2026-05-06 21:19 | 50.32475 | 20.16216 | 39399 ft | 416 kts | 190° |
| 2026-05-06 21:19 | 50.29598 | 20.15722 | 39518 ft | 417 kts | 190° |
| 2026-05-06 21:20 | 50.26712 | 20.15226 | 39619 ft | 417 kts | 190° |
| 2026-05-06 21:20 | 50.23827 | 20.14731 | 39760 ft | 417 kts | 190° |
| 2026-05-06 21:20 | 50.20940 | 20.14236 | 39798 ft | 418 kts | 190° |
| 2026-05-06 21:21 | 50.15129 | 20.13241 | 39823 ft | 421 kts | 190° |
| 2026-05-06 21:21 | 50.09302 | 20.12248 | 39835 ft | 421 kts | 190° |
| 2026-05-06 21:22 | 50.03470 | 20.11256 | 39822 ft | 422 kts | 189° |
| 2026-05-06 21:22 | 49.97639 | 20.10266 | 39834 ft | 421 kts | 189° |
| 2026-05-06 21:23 | 49.91814 | 20.09280 | 39840 ft | 421 kts | 189° |
| 2026-05-06 21:23 | 49.85987 | 20.08296 | 39842 ft | 421 kts | 189° |
| 2026-05-06 21:24 | 49.80169 | 20.07315 | 39829 ft | 420 kts | 189° |
| 2026-05-06 21:24 | 49.74370 | 20.06340 | 39849 ft | 418 kts | 189° |
| 2026-05-06 21:25 | 49.68580 | 20.05369 | 39858 ft | 418 kts | 189° |
| 2026-05-06 21:25 | 49.62793 | 20.04400 | 39854 ft | 418 kts | 189° |
| 2026-05-06 21:26 | 49.57009 | 20.03435 | 39854 ft | 418 kts | 189° |
| 2026-05-06 21:26 | 49.51227 | 20.02480 | 39728 ft | 420 kts | 189° |
| 2026-05-06 21:26 | 49.48294 | 20.01990 | 39281 ft | 425 kts | 189° |
| 2026-05-06 21:27 | 49.45361 | 20.01500 | 38731 ft | 424 kts | 189° |
| 2026-05-06 21:27 | 49.42433 | 20.01013 | 38149 ft | 423 kts | 189° |
| 2026-05-06 21:27 | 49.39514 | 20.00529 | 37610 ft | 420 kts | 189° |
| 2026-05-06 21:27 | 49.36631 | 20.00053 | 37200 ft | 414 kts | 189° |
| 2026-05-06 21:28 | 49.33788 | 19.99584 | 36837 ft | 408 kts | 189° |
| 2026-05-06 21:28 | 49.30982 | 19.99123 | 36436 ft | 404 kts | 189° |
| 2026-05-06 21:28 | 49.28204 | 19.98666 | 36053 ft | 399 kts | 189° |
| 2026-05-06 21:28 | 49.25454 | 19.98213 | 35680 ft | 396 kts | 189° |
| 2026-05-06 21:29 | 49.22726 | 19.97765 | 35289 ft | 392 kts | 189° |
| 2026-05-06 21:29 | 49.20023 | 19.97321 | 34935 ft | 389 kts | 189° |
| 2026-05-06 21:29 | 49.17340 | 19.96880 | 34552 ft | 386 kts | 190° |
| 2026-05-06 21:29 | 49.14678 | 19.96442 | 34190 ft | 384 kts | 190° |
| 2026-05-06 21:30 | 49.12028 | 19.96007 | 33791 ft | 382 kts | 189° |
| 2026-05-06 21:30 | 49.09397 | 19.95576 | 33379 ft | 379 kts | 189° |
| 2026-05-06 21:30 | 49.06817 | 19.95154 | 33000 ft | 376 kts | 189° |
| 2026-05-06 21:30 | 49.04195 | 19.94727 | 32637 ft | 373 kts | 189° |
| 2026-05-06 21:31 | 49.01659 | 19.94314 | 32279 ft | 370 kts | 189° |
| 2026-05-06 21:31 | 48.99112 | 19.93898 | 31906 ft | 367 kts | 189° |
| 2026-05-06 21:31 | 48.96589 | 19.93484 | 31565 ft | 363 kts | 189° |
| 2026-05-06 21:31 | 48.94083 | 19.93077 | 31205 ft | 360 kts | 189° |
| 2026-05-06 21:32 | 48.91600 | 19.92675 | 30862 ft | 358 kts | 189° |
| 2026-05-06 21:32 | 48.86681 | 19.91878 | 30170 ft | 353 kts | 189° |
| 2026-05-06 21:32 | 48.84244 | 19.91483 | 29809 ft | 351 kts | 189° |
| 2026-05-06 21:33 | 48.81821 | 19.91091 | 29422 ft | 348 kts | 189° |
| 2026-05-06 21:33 | 48.79425 | 19.90704 | 29084 ft | 345 kts | 189° |
| 2026-05-06 21:33 | 48.77054 | 19.90321 | 28704 ft | 341 kts | 189° |
| 2026-05-06 21:33 | 48.74707 | 19.89943 | 28366 ft | 337 kts | 189° |
| 2026-05-06 21:34 | 48.73133 | 19.89689 | 28114 ft | 336 kts | 189° |
| 2026-05-06 21:34 | 48.70070 | 19.89196 | 27671 ft | 332 kts | 189° |
| 2026-05-06 21:34 | 48.68523 | 19.88947 | 27437 ft | 331 kts | 189° |
| 2026-05-06 21:34 | 48.66237 | 19.88579 | 27071 ft | 329 kts | 189° |
| 2026-05-06 21:35 | 48.63967 | 19.88213 | 26735 ft | 327 kts | 189° |
| 2026-05-06 21:35 | 48.61739 | 19.87855 | 26383 ft | 325 kts | 189° |
| 2026-05-06 21:35 | 48.59495 | 19.87495 | 26060 ft | 323 kts | 189° |
| 2026-05-06 21:35 | 48.57267 | 19.87138 | 25731 ft | 321 kts | 189° |
| 2026-05-06 21:36 | 48.55047 | 19.86782 | 25382 ft | 321 kts | 189° |
| 2026-05-06 21:36 | 48.52824 | 19.86426 | 25053 ft | 321 kts | 189° |
| 2026-05-06 21:36 | 48.50589 | 19.86068 | 24732 ft | 327 kts | 189° |
| 2026-05-06 21:36 | 48.48295 | 19.85699 | 24394 ft | 336 kts | 188° |
| 2026-05-06 21:37 | 48.45963 | 19.85326 | 24020 ft | 337 kts | 188° |
| 2026-05-06 21:37 | 48.43636 | 19.84956 | 23670 ft | 335 kts | 188° |
| 2026-05-06 21:37 | 48.41320 | 19.84589 | 23272 ft | 334 kts | 188° |
| 2026-05-06 21:37 | 48.39013 | 19.84223 | 22882 ft | 332 kts | 188° |
| 2026-05-06 21:38 | 48.36724 | 19.83860 | 22516 ft | 330 kts | 188° |
| 2026-05-06 21:38 | 48.34454 | 19.83500 | 22157 ft | 327 kts | 188° |
| 2026-05-06 21:38 | 48.32202 | 19.83143 | 21804 ft | 324 kts | 188° |
| 2026-05-06 21:38 | 48.29970 | 19.82789 | 21479 ft | 321 kts | 188° |
| 2026-05-06 21:39 | 48.27753 | 19.82438 | 21139 ft | 319 kts | 188° |
| 2026-05-06 21:39 | 48.25553 | 19.82089 | 20803 ft | 317 kts | 188° |
| 2026-05-06 21:39 | 48.23371 | 19.81744 | 20471 ft | 314 kts | 188° |
| 2026-05-06 21:39 | 48.21207 | 19.81402 | 20147 ft | 312 kts | 188° |
| 2026-05-06 21:40 | 48.19056 | 19.81063 | 19825 ft | 310 kts | 188° |
| 2026-05-06 21:40 | 48.16924 | 19.80721 | 19500 ft | 308 kts | 189° |
| 2026-05-06 21:40 | 48.14812 | 19.80271 | 19180 ft | 305 kts | 191° |
| 2026-05-06 21:40 | 48.12727 | 19.79770 | 18863 ft | 303 kts | 192° |
| 2026-05-06 21:41 | 48.10654 | 19.79262 | 18540 ft | 301 kts | 191° |
| 2026-05-06 21:41 | 48.08593 | 19.78761 | 18210 ft | 300 kts | 191° |
| 2026-05-06 21:41 | 48.06539 | 19.78269 | 17854 ft | 298 kts | 191° |
| 2026-05-06 21:41 | 48.04498 | 19.77785 | 17512 ft | 296 kts | 191° |
| 2026-05-06 21:42 | 48.02470 | 19.77308 | 17177 ft | 294 kts | 191° |
| 2026-05-06 21:42 | 48.00459 | 19.76836 | 16850 ft | 291 kts | 191° |
| 2026-05-06 21:42 | 47.98467 | 19.76370 | 16529 ft | 289 kts | 191° |
| 2026-05-06 21:42 | 47.96492 | 19.75909 | 16225 ft | 286 kts | 191° |
| 2026-05-06 21:43 | 47.94532 | 19.75451 | 15911 ft | 284 kts | 191° |
| 2026-05-06 21:43 | 47.92584 | 19.74997 | 15607 ft | 282 kts | 191° |
| 2026-05-06 21:43 | 47.90647 | 19.74544 | 15295 ft | 281 kts | 191° |
| 2026-05-06 21:43 | 47.88723 | 19.74097 | 15007 ft | 279 kts | 191° |
| 2026-05-06 21:44 | 47.86805 | 19.73651 | 14692 ft | 279 kts | 191° |
| 2026-05-06 21:44 | 47.84892 | 19.73207 | 14388 ft | 278 kts | 191° |
| 2026-05-06 21:44 | 47.83063 | 19.72377 | 14059 ft | 275 kts | 210° |
| 2026-05-06 21:44 | 47.81539 | 19.70700 | 13867 ft | 273 kts | 221° |
| 2026-05-06 21:45 | 47.80142 | 19.68781 | 13610 ft | 274 kts | 222° |
| 2026-05-06 21:45 | 47.78752 | 19.66828 | 13345 ft | 276 kts | 223° |
| 2026-05-06 21:45 | 47.77375 | 19.64898 | 13089 ft | 276 kts | 222° |
| 2026-05-06 21:45 | 47.75977 | 19.62953 | 12828 ft | 275 kts | 222° |
| 2026-05-06 21:46 | 47.74578 | 19.61020 | 12573 ft | 274 kts | 222° |
| 2026-05-06 21:46 | 47.73179 | 19.59097 | 12316 ft | 274 kts | 222° |
| 2026-05-06 21:46 | 47.71791 | 19.57195 | 12098 ft | 269 kts | 221° |
| 2026-05-06 21:46 | 47.70422 | 19.55323 | 11800 ft | 267 kts | 221° |
| 2026-05-06 21:47 | 47.69058 | 19.53460 | 11328 ft | 270 kts | 221° |
| 2026-05-06 21:47 | 47.67656 | 19.51546 | 10850 ft | 275 kts | 221° |
| 2026-05-06 21:47 | 47.66241 | 19.49616 | 10475 ft | 276 kts | 221° |
| 2026-05-06 21:47 | 47.64839 | 19.47705 | 10164 ft | 271 kts | 221° |
| 2026-05-06 21:48 | 47.63491 | 19.45867 | 10059 ft | 256 kts | 221° |
| 2026-05-06 21:48 | 47.62203 | 19.44115 | 9777 ft | 248 kts | 221° |
| 2026-05-06 21:48 | 47.60952 | 19.42412 | 9487 ft | 243 kts | 221° |
| 2026-05-06 21:48 | 47.59709 | 19.40720 | 9196 ft | 242 kts | 221° |
| 2026-05-06 21:49 | 47.58469 | 19.39035 | 8912 ft | 241 kts | 221° |
| 2026-05-06 21:49 | 47.57236 | 19.37362 | 8634 ft | 240 kts | 221° |
| 2026-05-06 21:49 | 47.56007 | 19.35695 | 8350 ft | 239 kts | 221° |
| 2026-05-06 21:49 | 47.54763 | 19.34116 | 8213 ft | 232 kts | 211° |
| 2026-05-06 21:50 | 47.53259 | 19.33423 | 8095 ft | 226 kts | 186° |
| 2026-05-06 21:50 | 47.51703 | 19.33695 | 7873 ft | 229 kts | 167° |
| 2026-05-06 21:50 | 47.50283 | 19.34779 | 7629 ft | 235 kts | 146° |
| 2026-05-06 21:50 | 47.49135 | 19.36516 | 7400 ft | 236 kts | 138° |
| 2026-05-06 21:51 | 47.48032 | 19.38307 | 7162 ft | 235 kts | 138° |
| 2026-05-06 21:51 | 47.46928 | 19.40095 | 6917 ft | 235 kts | 138° |
| 2026-05-06 21:51 | 47.45822 | 19.41881 | 6670 ft | 236 kts | 139° |
| 2026-05-06 21:51 | 47.44715 | 19.43664 | 6425 ft | 236 kts | 138° |
| 2026-05-06 21:52 | 47.43607 | 19.45449 | 6179 ft | 236 kts | 138° |
| 2026-05-06 21:52 | 47.42500 | 19.47230 | 5920 ft | 236 kts | 138° |
| 2026-05-06 21:52 | 47.41390 | 19.49013 | 5662 ft | 236 kts | 138° |
| 2026-05-06 21:52 | 47.40282 | 19.50796 | 5380 ft | 235 kts | 137° |
| 2026-05-06 21:53 | 47.39191 | 19.52547 | 5160 ft | 235 kts | 137° |
| 2026-05-06 21:53 | 47.38086 | 19.54318 | 4898 ft | 235 kts | 137° |
| 2026-05-06 21:53 | 47.36885 | 19.55924 | 4586 ft | 230 kts | 157° |
| 2026-05-06 21:53 | 47.35399 | 19.56382 | 4480 ft | 214 kts | 187° |
| 2026-05-06 21:54 | 47.34006 | 19.55825 | 4352 ft | 204 kts | 208° |
| 2026-05-06 21:54 | 47.32882 | 19.54601 | 4300 ft | 201 kts | 222° |
| 2026-05-06 21:54 | 47.31839 | 19.53194 | 4140 ft | 205 kts | 222° |
| 2026-05-06 21:54 | 47.30833 | 19.51756 | 3930 ft | 199 kts | 231° |
| 2026-05-06 21:55 | 47.30399 | 19.49868 | 3690 ft | 198 kts | 269° |
| 2026-05-06 21:55 | 47.30805 | 19.47960 | 3494 ft | 198 kts | 299° |
| 2026-05-06 21:55 | 47.31706 | 19.46432 | 3302 ft | 197 kts | 308° |
| 2026-05-06 21:55 | 47.32627 | 19.44955 | 3117 ft | 193 kts | 308° |
| 2026-05-06 21:56 | 47.33538 | 19.43565 | 2979 ft | 185 kts | 308° |
| 2026-05-06 21:56 | 47.34406 | 19.42198 | 2747 ft | 180 kts | 306° |
| 2026-05-06 21:56 | 47.35240 | 19.40852 | 2507 ft | 174 kts | 305° |
| 2026-05-06 21:56 | 47.36035 | 19.39562 | 2296 ft | 167 kts | 305° |
| 2026-05-06 21:57 | 47.36784 | 19.38348 | 2106 ft | 152 kts | 305° |
| 2026-05-06 21:57 | 47.37474 | 19.37227 | 1881 ft | 144 kts | 304° |
| 2026-05-06 21:57 | 47.38143 | 19.36138 | 1695 ft | 143 kts | 305° |
| 2026-05-06 21:57 | 47.38815 | 19.35045 | 1495 ft | 144 kts | 306° |
| 2026-05-06 21:58 | 47.39497 | 19.33938 | 1317 ft | 149 kts | 307° |
| 2026-05-06 21:58 | 47.40199 | 19.32799 | 1100 ft | 150 kts | 309° |
| 2026-05-06 21:58 | 47.40902 | 19.31661 | 920 ft | 150 kts | 310° |
| 2026-05-06 21:58 | 47.41613 | 19.30507 | 689 ft | 154 kts | 310° |
| 2026-05-06 21:59 | 47.42325 | 19.29338 | 475 ft | 152 kts | 311° |
| 2026-05-06 21:59 | 47.42979 | 19.28279 | 457 ft | 115 kts | 312° |
| 2026-05-06 21:59 | 47.43370 | 19.27648 | 465 ft | 51 kts | 312° |
| 2026-05-06 21:59 | 47.43583 | 19.27307 | 472 ft | 37 kts | 313° |
| 2026-05-06 22:00 | 47.43702 | 19.27075 | 472 ft | 16 kts | 293° |
| 2026-05-06 22:00 | 47.43738 | 19.26940 | 469 ft | 13 kts | 288° |
| 2026-05-06 22:00 | 47.43764 | 19.26792 | 461 ft | 17 kts | 284° |
| 2026-05-06 22:00 | 47.43786 | 19.26637 | 459 ft | 13 kts | 279° |
| 2026-05-06 22:01 | 47.43802 | 19.26510 | 458 ft | 10 kts | 270° |
| 2026-05-06 22:01 | 47.43767 | 19.26435 | 457 ft | 8 kts | 217° |
| 2026-05-06 22:01 | 47.43724 | 19.26381 | 456 ft | 8 kts | 221° |
| 2026-05-06 22:01 | 47.43693 | 19.26347 | 457 ft | 5 kts | 205° |
| 2026-05-06 22:02 | 47.43660 | 19.26360 | 454 ft | 5 kts | 136° |
| 2026-05-06 22:02 | 47.43634 | 19.26401 | 457 ft | 5 kts | 133° |
| 2026-05-06 22:02 | 47.43608 | 19.26441 | 455 ft | 5 kts | 133° |
| 2026-05-06 22:02 | 47.43583 | 19.26481 | 457 ft | 5 kts | 133° |
| 2026-05-06 22:03 | 47.43562 | 19.26514 | 455 ft | 2 kts | 137° |
| 2026-05-06 22:03 | 47.43549 | 19.26517 | 457 ft | 2 kts | 190° |
| 2026-05-06 22:03 | 47.43536 | 19.26508 | 457 ft | 2 kts | 208° |
| 2026-05-06 22:03 | 47.43524 | 19.26495 | 457 ft | 2 kts | 220° |
| 2026-05-06 22:04 | 47.43514 | 19.26482 | 457 ft | 1 kts | 221° |
| 2026-05-06 22:04 | 47.43511 | 19.26478 | 456 ft | 0 kts | 222° |